sensor_id;sensor_type;location;lat;lon;timestamp;temperature;humidity
46159;DHT22;31888;44.512;26.104;2023-08-30T00:01:02;25.40;81.30
46159;DHT22;31888;44.512;26.104;2023-08-30T00:03:25;25.40;81.50
46159;DHT22;31888;44.512;26.104;2023-08-30T00:05:49;25.30;81.50
46159;DHT22;31888;44.512;26.104;2023-08-30T00:08:13;25.30;81.80
46159;DHT22;31888;44.512;26.104;2023-08-30T00:10:40;25.30;82.10
46159;DHT22;31888;44.512;26.104;2023-08-30T00:13:05;25.20;82.30
46159;DHT22;31888;44.512;26.104;2023-08-30T00:15:31;25.20;82.60
46159;DHT22;31888;44.512;26.104;2023-08-30T00:17:54;25.10;82.60
46159;DHT22;31888;44.512;26.104;2023-08-30T00:20:18;25.10;82.90
46159;DHT22;31888;44.512;26.104;2023-08-30T00:22:42;25.10;83.10
46159;DHT22;31888;44.512;26.104;2023-08-30T00:25:06;25.00;83.30
46159;DHT22;31888;44.512;26.104;2023-08-30T00:27:30;25.00;83.50
46159;DHT22;31888;44.512;26.104;2023-08-30T00:29:54;25.00;83.60
46159;DHT22;31888;44.512;26.104;2023-08-30T00:32:19;25.00;83.70
46159;DHT22;31888;44.512;26.104;2023-08-30T00:34:43;24.90;83.90
46159;DHT22;31888;44.512;26.104;2023-08-30T00:37:07;24.90;84.00
46159;DHT22;31888;44.512;26.104;2023-08-30T00:39:31;24.90;84.00
46159;DHT22;31888;44.512;26.104;2023-08-30T00:41:55;24.90;83.90
46159;DHT22;31888;44.512;26.104;2023-08-30T00:44:18;25.00;84.00
46159;DHT22;31888;44.512;26.104;2023-08-30T00:46:42;25.00;83.80
46159;DHT22;31888;44.512;26.104;2023-08-30T00:49:07;25.10;83.80
46159;DHT22;31888;44.512;26.104;2023-08-30T00:51:33;25.20;84.00
46159;DHT22;31888;44.512;26.104;2023-08-30T00:53:58;25.20;83.30
46159;DHT22;31888;44.512;26.104;2023-08-30T00:56:23;25.20;83.60
46159;DHT22;31888;44.512;26.104;2023-08-30T00:58:47;25.20;83.40
46159;DHT22;31888;44.512;26.104;2023-08-30T01:01:12;25.20;83.00
46159;DHT22;31888;44.512;26.104;2023-08-30T01:03:36;25.20;83.20
46159;DHT22;31888;44.512;26.104;2023-08-30T01:06:02;25.20;83.20
46159;DHT22;31888;44.512;26.104;2023-08-30T01:08:26;25.20;83.10
46159;DHT22;31888;44.512;26.104;2023-08-30T01:10:56;25.30;83.10
46159;DHT22;31888;44.512;26.104;2023-08-30T01:13:22;25.40;82.20
46159;DHT22;31888;44.512;26.104;2023-08-30T01:15:47;25.40;82.50
46159;DHT22;31888;44.512;26.104;2023-08-30T01:18:11;25.40;82.50
46159;DHT22;31888;44.512;26.104;2023-08-30T01:20:37;25.40;82.70
46159;DHT22;31888;44.512;26.104;2023-08-30T01:23:06;25.40;82.70
46159;DHT22;31888;44.512;26.104;2023-08-30T01:25:42;25.30;82.80
46159;DHT22;31888;44.512;26.104;2023-08-30T01:28:09;25.30;82.70
46159;DHT22;31888;44.512;26.104;2023-08-30T01:30:35;25.30;83.00
46159;DHT22;31888;44.512;26.104;2023-08-30T01:33:01;25.20;83.50
46159;DHT22;31888;44.512;26.104;2023-08-30T01:35:26;25.30;83.90
46159;DHT22;31888;44.512;26.104;2023-08-30T01:37:55;25.20;83.80
46159;DHT22;31888;44.512;26.104;2023-08-30T01:40:19;25.00;84.20
46159;DHT22;31888;44.512;26.104;2023-08-30T01:42:44;24.90;83.60
46159;DHT22;31888;44.512;26.104;2023-08-30T01:45:13;24.90;83.80
46159;DHT22;31888;44.512;26.104;2023-08-30T01:47:38;24.80;83.80
46159;DHT22;31888;44.512;26.104;2023-08-30T01:50:02;24.80;84.40
46159;DHT22;31888;44.512;26.104;2023-08-30T01:52:27;24.60;85.30
46159;DHT22;31888;44.512;26.104;2023-08-30T01:54:51;24.50;85.30
46159;DHT22;31888;44.512;26.104;2023-08-30T01:57:16;24.40;86.00
46159;DHT22;31888;44.512;26.104;2023-08-30T01:59:39;24.30;86.40
46159;DHT22;31888;44.512;26.104;2023-08-30T02:02:05;24.30;86.60
46159;DHT22;31888;44.512;26.104;2023-08-30T02:04:29;24.30;86.70
46159;DHT22;31888;44.512;26.104;2023-08-30T02:06:57;24.20;87.00
46159;DHT22;31888;44.512;26.104;2023-08-30T02:09:28;24.20;87.60
46159;DHT22;31888;44.512;26.104;2023-08-30T02:11:55;24.20;87.80
46159;DHT22;31888;44.512;26.104;2023-08-30T02:14:20;24.10;88.50
46159;DHT22;31888;44.512;26.104;2023-08-30T02:16:46;24.00;89.30
46159;DHT22;31888;44.512;26.104;2023-08-30T02:19:12;23.80;90.00
46159;DHT22;31888;44.512;26.104;2023-08-30T02:21:40;23.70;90.50
46159;DHT22;31888;44.512;26.104;2023-08-30T02:24:04;23.60;91.10
46159;DHT22;31888;44.512;26.104;2023-08-30T02:26:28;23.50;91.60
46159;DHT22;31888;44.512;26.104;2023-08-30T02:28:52;23.30;92.00
46159;DHT22;31888;44.512;26.104;2023-08-30T02:31:16;23.30;92.40
46159;DHT22;31888;44.512;26.104;2023-08-30T02:33:40;23.20;92.80
46159;DHT22;31888;44.512;26.104;2023-08-30T02:36:07;23.00;93.10
46159;DHT22;31888;44.512;26.104;2023-08-30T02:38:31;23.00;93.30
46159;DHT22;31888;44.512;26.104;2023-08-30T02:40:55;23.00;93.50
46159;DHT22;31888;44.512;26.104;2023-08-30T02:43:19;23.00;93.70
46159;DHT22;31888;44.512;26.104;2023-08-30T02:45:47;22.90;94.00
46159;DHT22;31888;44.512;26.104;2023-08-30T02:48:11;22.90;94.20
46159;DHT22;31888;44.512;26.104;2023-08-30T02:50:36;22.70;94.60
46159;DHT22;31888;44.512;26.104;2023-08-30T02:53:01;22.60;95.00
46159;DHT22;31888;44.512;26.104;2023-08-30T02:55:26;22.60;95.20
46159;DHT22;31888;44.512;26.104;2023-08-30T02:57:50;22.40;95.60
46159;DHT22;31888;44.512;26.104;2023-08-30T03:00:15;22.40;95.80
46159;DHT22;31888;44.512;26.104;2023-08-30T03:02:42;22.40;96.00
46159;DHT22;31888;44.512;26.104;2023-08-30T03:05:09;22.30;96.30
46159;DHT22;31888;44.512;26.104;2023-08-30T03:07:34;22.30;96.40
46159;DHT22;31888;44.512;26.104;2023-08-30T03:09:59;22.30;96.60
46159;DHT22;31888;44.512;26.104;2023-08-30T03:12:25;22.30;96.70
46159;DHT22;31888;44.512;26.104;2023-08-30T03:14:49;22.20;97.00
46159;DHT22;31888;44.512;26.104;2023-08-30T03:17:13;22.20;97.20
46159;DHT22;31888;44.512;26.104;2023-08-30T03:19:36;22.10;97.40
46159;DHT22;31888;44.512;26.104;2023-08-30T03:22:00;22.10;97.50
46159;DHT22;31888;44.512;26.104;2023-08-30T03:24:24;22.00;97.80
46159;DHT22;31888;44.512;26.104;2023-08-30T03:26:49;22.00;97.90
46159;DHT22;31888;44.512;26.104;2023-08-30T03:29:14;22.00;98.10
46159;DHT22;31888;44.512;26.104;2023-08-30T03:31:38;21.90;98.60
46159;DHT22;31888;44.512;26.104;2023-08-30T03:34:01;21.90;98.60
46159;DHT22;31888;44.512;26.104;2023-08-30T03:36:25;21.80;98.90
46159;DHT22;31888;44.512;26.104;2023-08-30T03:38:49;21.70;99.10
46159;DHT22;31888;44.512;26.104;2023-08-30T03:41:13;21.70;99.30
46159;DHT22;31888;44.512;26.104;2023-08-30T03:43:40;21.70;99.50
46159;DHT22;31888;44.512;26.104;2023-08-30T03:46:05;21.70;99.50
46159;DHT22;31888;44.512;26.104;2023-08-30T03:48:29;21.70;99.60
46159;DHT22;31888;44.512;26.104;2023-08-30T03:50:53;21.80;99.70
46159;DHT22;31888;44.512;26.104;2023-08-30T03:53:17;21.90;99.60
46159;DHT22;31888;44.512;26.104;2023-08-30T03:55:41;21.90;99.50
46159;DHT22;31888;44.512;26.104;2023-08-30T03:58:05;22.00;99.50
46159;DHT22;31888;44.512;26.104;2023-08-30T04:00:31;22.10;99.50
46159;DHT22;31888;44.512;26.104;2023-08-30T04:02:57;22.10;99.40
46159;DHT22;31888;44.512;26.104;2023-08-30T04:05:22;22.10;99.30
46159;DHT22;31888;44.512;26.104;2023-08-30T04:07:48;22.20;99.10
46159;DHT22;31888;44.512;26.104;2023-08-30T04:10:12;22.30;99.00
46159;DHT22;31888;44.512;26.104;2023-08-30T04:12:36;22.50;98.80
46159;DHT22;31888;44.512;26.104;2023-08-30T04:15:00;22.60;98.60
46159;DHT22;31888;44.512;26.104;2023-08-30T04:17:26;22.80;98.20
46159;DHT22;31888;44.512;26.104;2023-08-30T04:19:51;23.00;97.70
46159;DHT22;31888;44.512;26.104;2023-08-30T04:22:15;23.30;97.30
46159;DHT22;31888;44.512;26.104;2023-08-30T04:24:41;23.50;97.00
46159;DHT22;31888;44.512;26.104;2023-08-30T04:27:05;23.50;96.70
46159;DHT22;31888;44.512;26.104;2023-08-30T04:29:29;23.60;96.60
46159;DHT22;31888;44.512;26.104;2023-08-30T04:31:52;23.70;96.30
46159;DHT22;31888;44.512;26.104;2023-08-30T04:34:18;23.70;96.30
46159;DHT22;31888;44.512;26.104;2023-08-30T04:36:43;23.80;96.20
46159;DHT22;31888;44.512;26.104;2023-08-30T04:39:07;24.10;95.80
46159;DHT22;31888;44.512;26.104;2023-08-30T04:41:32;24.40;95.40
46159;DHT22;31888;44.512;26.104;2023-08-30T04:43:56;24.50;94.90
46159;DHT22;31888;44.512;26.104;2023-08-30T04:46:21;24.80;94.30
46159;DHT22;31888;44.512;26.104;2023-08-30T04:48:44;25.10;93.90
46159;DHT22;31888;44.512;26.104;2023-08-30T04:51:11;25.00;93.80
46159;DHT22;31888;44.512;26.104;2023-08-30T04:53:36;25.20;93.60
46159;DHT22;31888;44.512;26.104;2023-08-30T04:56:00;25.00;93.20
46159;DHT22;31888;44.512;26.104;2023-08-30T04:58:24;25.40;93.10
46159;DHT22;31888;44.512;26.104;2023-08-30T05:00:48;25.80;92.80
46159;DHT22;31888;44.512;26.104;2023-08-30T05:03:13;26.20;91.90
46159;DHT22;31888;44.512;26.104;2023-08-30T05:05:37;26.10;91.60
46159;DHT22;31888;44.512;26.104;2023-08-30T05:08:03;26.50;91.60
46159;DHT22;31888;44.512;26.104;2023-08-30T05:10:27;26.60;90.70
46159;DHT22;31888;44.512;26.104;2023-08-30T05:12:51;26.50;90.90
46159;DHT22;31888;44.512;26.104;2023-08-30T05:15:15;27.00;90.30
46159;DHT22;31888;44.512;26.104;2023-08-30T05:17:39;27.50;89.40
46159;DHT22;31888;44.512;26.104;2023-08-30T05:20:04;27.70;88.80
46159;DHT22;31888;44.512;26.104;2023-08-30T05:22:28;28.00;87.10
46159;DHT22;31888;44.512;26.104;2023-08-30T05:24:53;28.10;86.00
46159;DHT22;31888;44.512;26.104;2023-08-30T05:27:17;28.80;85.20
46159;DHT22;31888;44.512;26.104;2023-08-30T05:29:41;29.00;83.70
46159;DHT22;31888;44.512;26.104;2023-08-30T05:32:05;29.40;82.00
46159;DHT22;31888;44.512;26.104;2023-08-30T05:34:35;30.00;81.00
46159;DHT22;31888;44.512;26.104;2023-08-30T05:37:04;30.40;78.80
46159;DHT22;31888;44.512;26.104;2023-08-30T05:39:57;30.60;77.70
46159;DHT22;31888;44.512;26.104;2023-08-30T05:42:21;30.30;77.40
46159;DHT22;31888;44.512;26.104;2023-08-30T05:44:44;30.50;77.20
46159;DHT22;31888;44.512;26.104;2023-08-30T05:47:08;31.00;76.40
46159;DHT22;31888;44.512;26.104;2023-08-30T05:49:37;31.20;76.10
46159;DHT22;31888;44.512;26.104;2023-08-30T05:52:01;31.50;75.40
46159;DHT22;31888;44.512;26.104;2023-08-30T05:54:25;31.90;74.20
46159;DHT22;31888;44.512;26.104;2023-08-30T05:56:53;32.40;73.10
46159;DHT22;31888;44.512;26.104;2023-08-30T05:59:17;32.20;72.10
46159;DHT22;31888;44.512;26.104;2023-08-30T06:01:41;32.70;71.70
46159;DHT22;31888;44.512;26.104;2023-08-30T06:04:05;33.30;70.80
46159;DHT22;31888;44.512;26.104;2023-08-30T06:06:30;34.20;69.40
46159;DHT22;31888;44.512;26.104;2023-08-30T06:08:54;35.10;67.50
46159;DHT22;31888;44.512;26.104;2023-08-30T06:11:18;35.50;66.30
46159;DHT22;31888;44.512;26.104;2023-08-30T06:13:46;36.50;65.40
46159;DHT22;31888;44.512;26.104;2023-08-30T06:16:10;35.90;64.60
46159;DHT22;31888;44.512;26.104;2023-08-30T06:18:35;36.50;64.50
46159;DHT22;31888;44.512;26.104;2023-08-30T06:20:59;37.20;63.10
46159;DHT22;31888;44.512;26.104;2023-08-30T06:23:23;37.40;62.10
46159;DHT22;31888;44.512;26.104;2023-08-30T06:25:54;37.60;61.90
46159;DHT22;31888;44.512;26.104;2023-08-30T06:28:18;38.30;60.60
46159;DHT22;31888;44.512;26.104;2023-08-30T06:30:44;39.00;59.90
46159;DHT22;31888;44.512;26.104;2023-08-30T06:33:08;39.00;60.10
46159;DHT22;31888;44.512;26.104;2023-08-30T06:35:36;39.00;59.40
46159;DHT22;31888;44.512;26.104;2023-08-30T06:38:01;37.90;60.20
46159;DHT22;31888;44.512;26.104;2023-08-30T06:40:26;38.60;59.40
46159;DHT22;31888;44.512;26.104;2023-08-30T06:42:51;38.20;60.20
46159;DHT22;31888;44.512;26.104;2023-08-30T06:45:15;38.60;60.20
46159;DHT22;31888;44.512;26.104;2023-08-30T06:47:42;39.00;60.40
46159;DHT22;31888;44.512;26.104;2023-08-30T06:50:07;39.30;60.00
46159;DHT22;31888;44.512;26.104;2023-08-30T06:52:35;39.80;59.00
46159;DHT22;31888;44.512;26.104;2023-08-30T06:54:59;40.30;58.20
46159;DHT22;31888;44.512;26.104;2023-08-30T06:57:23;40.60;57.30
46159;DHT22;31888;44.512;26.104;2023-08-30T06:59:48;40.50;57.20
46159;DHT22;31888;44.512;26.104;2023-08-30T07:02:12;40.20;57.40
46159;DHT22;31888;44.512;26.104;2023-08-30T07:04:39;39.40;58.00
46159;DHT22;31888;44.512;26.104;2023-08-30T07:07:04;38.70;58.80
46159;DHT22;31888;44.512;26.104;2023-08-30T07:09:28;38.30;59.70
46159;DHT22;31888;44.512;26.104;2023-08-30T07:11:54;38.70;59.10
46159;DHT22;31888;44.512;26.104;2023-08-30T07:14:18;39.50;58.70
46159;DHT22;31888;44.512;26.104;2023-08-30T07:16:43;39.90;57.60
46159;DHT22;31888;44.512;26.104;2023-08-30T07:19:07;40.50;57.50
46159;DHT22;31888;44.512;26.104;2023-08-30T07:21:33;41.10;56.60
46159;DHT22;31888;44.512;26.104;2023-08-30T07:24:00;41.40;55.60
46159;DHT22;31888;44.512;26.104;2023-08-30T07:26:24;41.20;55.20
46159;DHT22;31888;44.512;26.104;2023-08-30T07:28:48;41.30;55.20
46159;DHT22;31888;44.512;26.104;2023-08-30T07:31:12;41.00;55.30
46159;DHT22;31888;44.512;26.104;2023-08-30T07:33:40;40.70;55.80
46159;DHT22;31888;44.512;26.104;2023-08-30T07:36:04;40.80;55.90
46159;DHT22;31888;44.512;26.104;2023-08-30T07:38:30;40.70;55.80
46159;DHT22;31888;44.512;26.104;2023-08-30T07:40:54;40.60;56.10
46159;DHT22;31888;44.512;26.104;2023-08-30T07:43:18;41.50;55.40
46159;DHT22;31888;44.512;26.104;2023-08-30T07:45:43;41.60;54.40
46159;DHT22;31888;44.512;26.104;2023-08-30T07:48:07;41.20;54.80
46159;DHT22;31888;44.512;26.104;2023-08-30T07:50:31;40.70;55.80
46159;DHT22;31888;44.512;26.104;2023-08-30T07:52:58;41.50;55.30
46159;DHT22;31888;44.512;26.104;2023-08-30T07:55:25;41.50;55.20
46159;DHT22;31888;44.512;26.104;2023-08-30T07:57:49;41.90;54.90
46159;DHT22;31888;44.512;26.104;2023-08-30T08:00:14;42.50;54.60
46159;DHT22;31888;44.512;26.104;2023-08-30T08:02:40;41.90;53.90
46159;DHT22;31888;44.512;26.104;2023-08-30T08:05:04;41.10;54.90
46159;DHT22;31888;44.512;26.104;2023-08-30T08:07:29;41.10;55.00
46159;DHT22;31888;44.512;26.104;2023-08-30T08:09:54;40.70;55.60
46159;DHT22;31888;44.512;26.104;2023-08-30T08:12:20;40.90;55.30
46159;DHT22;31888;44.512;26.104;2023-08-30T08:14:44;40.90;55.60
46159;DHT22;31888;44.512;26.104;2023-08-30T08:17:11;40.80;55.50
46159;DHT22;31888;44.512;26.104;2023-08-30T08:19:37;41.20;55.50
46159;DHT22;31888;44.512;26.104;2023-08-30T08:22:03;40.80;55.00
46159;DHT22;31888;44.512;26.104;2023-08-30T08:24:27;38.80;56.60
46159;DHT22;31888;44.512;26.104;2023-08-30T08:26:51;37.20;58.80
46159;DHT22;31888;44.512;26.104;2023-08-30T08:29:16;36.30;60.40
46159;DHT22;31888;44.512;26.104;2023-08-30T08:31:40;35.80;61.00
46159;DHT22;31888;44.512;26.104;2023-08-30T08:34:07;35.70;61.70
46159;DHT22;31888;44.512;26.104;2023-08-30T08:36:32;35.40;62.10
46159;DHT22;31888;44.512;26.104;2023-08-30T08:38:56;34.70;62.70
46159;DHT22;31888;44.512;26.104;2023-08-30T08:41:20;34.90;62.70
46159;DHT22;31888;44.512;26.104;2023-08-30T08:43:45;35.50;62.50
46159;DHT22;31888;44.512;26.104;2023-08-30T08:46:13;35.70;62.40
46159;DHT22;31888;44.512;26.104;2023-08-30T08:48:41;35.80;61.50
46159;DHT22;31888;44.512;26.104;2023-08-30T08:51:07;35.40;61.90
46159;DHT22;31888;44.512;26.104;2023-08-30T08:53:31;35.10;62.70
46159;DHT22;31888;44.512;26.104;2023-08-30T08:55:58;34.10;63.50
46159;DHT22;31888;44.512;26.104;2023-08-30T08:58:24;33.70;64.80
46159;DHT22;31888;44.512;26.104;2023-08-30T09:00:49;33.70;64.90
46159;DHT22;31888;44.512;26.104;2023-08-30T09:03:15;33.80;64.80
46159;DHT22;31888;44.512;26.104;2023-08-30T09:05:40;33.90;64.60
46159;DHT22;31888;44.512;26.104;2023-08-30T09:08:05;33.80;64.40
46159;DHT22;31888;44.512;26.104;2023-08-30T09:10:29;33.20;65.00
46159;DHT22;31888;44.512;26.104;2023-08-30T09:12:53;33.10;65.10
46159;DHT22;31888;44.512;26.104;2023-08-30T09:15:17;33.50;65.20
46159;DHT22;31888;44.512;26.104;2023-08-30T09:17:43;33.70;64.30
46159;DHT22;31888;44.512;26.104;2023-08-30T09:20:12;34.10;64.10
46159;DHT22;31888;44.512;26.104;2023-08-30T09:22:38;34.30;63.70
46159;DHT22;31888;44.512;26.104;2023-08-30T09:25:02;34.50;62.90
46159;DHT22;31888;44.512;26.104;2023-08-30T09:27:32;34.20;63.30
46159;DHT22;31888;44.512;26.104;2023-08-30T09:29:58;33.80;64.40
46159;DHT22;31888;44.512;26.104;2023-08-30T09:32:22;33.70;64.20
46159;DHT22;31888;44.512;26.104;2023-08-30T09:34:46;33.90;64.60
46159;DHT22;31888;44.512;26.104;2023-08-30T09:37:20;33.70;64.40
46159;DHT22;31888;44.512;26.104;2023-08-30T09:39:49;33.70;64.50
46159;DHT22;31888;44.512;26.104;2023-08-30T09:42:16;33.50;64.60
46159;DHT22;31888;44.512;26.104;2023-08-30T09:44:40;33.10;65.80
46159;DHT22;31888;44.512;26.104;2023-08-30T09:47:04;33.50;66.10
46159;DHT22;31888;44.512;26.104;2023-08-30T09:49:29;33.90;65.20
46159;DHT22;31888;44.512;26.104;2023-08-30T09:51:54;34.00;64.60
46159;DHT22;31888;44.512;26.104;2023-08-30T09:54:21;34.00;64.70
46159;DHT22;31888;44.512;26.104;2023-08-30T09:56:48;34.10;64.80
46159;DHT22;31888;44.512;26.104;2023-08-30T09:59:15;34.20;64.80
46159;DHT22;31888;44.512;26.104;2023-08-30T10:01:39;34.30;64.60
46159;DHT22;31888;44.512;26.104;2023-08-30T10:04:04;34.40;64.30
46159;DHT22;31888;44.512;26.104;2023-08-30T10:06:30;34.40;64.60
46159;DHT22;31888;44.512;26.104;2023-08-30T10:08:55;34.30;63.90
46159;DHT22;31888;44.512;26.104;2023-08-30T10:11:22;34.00;64.30
46159;DHT22;31888;44.512;26.104;2023-08-30T10:13:47;33.60;65.10
46159;DHT22;31888;44.512;26.104;2023-08-30T10:16:15;33.50;65.40
46159;DHT22;31888;44.512;26.104;2023-08-30T10:18:43;33.60;65.30
46159;DHT22;31888;44.512;26.104;2023-08-30T10:21:21;33.50;65.60
46159;DHT22;31888;44.512;26.104;2023-08-30T10:23:46;33.80;65.70
46159;DHT22;31888;44.512;26.104;2023-08-30T10:26:12;33.80;65.70
46159;DHT22;31888;44.512;26.104;2023-08-30T10:28:40;33.90;64.60
46159;DHT22;31888;44.512;26.104;2023-08-30T10:31:05;33.60;65.10
46159;DHT22;31888;44.512;26.104;2023-08-30T10:33:29;33.80;65.60
46159;DHT22;31888;44.512;26.104;2023-08-30T10:35:54;33.90;64.40
46159;DHT22;31888;44.512;26.104;2023-08-30T10:38:28;33.80;64.60
46159;DHT22;31888;44.512;26.104;2023-08-30T10:40:52;33.70;64.50
46159;DHT22;31888;44.512;26.104;2023-08-30T10:43:16;33.60;65.90
46159;DHT22;31888;44.512;26.104;2023-08-30T10:45:42;33.60;65.50
46159;DHT22;31888;44.512;26.104;2023-08-30T10:48:06;33.70;65.30
46159;DHT22;31888;44.512;26.104;2023-08-30T10:50:33;33.80;65.10
46159;DHT22;31888;44.512;26.104;2023-08-30T10:52:57;33.80;64.50
46159;DHT22;31888;44.512;26.104;2023-08-30T10:55:22;33.70;66.70
46159;DHT22;31888;44.512;26.104;2023-08-30T10:57:46;33.70;66.10
46159;DHT22;31888;44.512;26.104;2023-08-30T11:00:21;33.70;65.70
46159;DHT22;31888;44.512;26.104;2023-08-30T11:02:51;33.50;65.70
46159;DHT22;31888;44.512;26.104;2023-08-30T11:05:17;33.30;65.80
46159;DHT22;31888;44.512;26.104;2023-08-30T11:07:45;33.00;66.10
46159;DHT22;31888;44.512;26.104;2023-08-30T11:10:12;33.00;66.00
46159;DHT22;31888;44.512;26.104;2023-08-30T11:12:36;32.90;65.90
46159;DHT22;31888;44.512;26.104;2023-08-30T11:15:01;32.90;66.20
46159;DHT22;31888;44.512;26.104;2023-08-30T11:17:26;33.00;66.30
46159;DHT22;31888;44.512;26.104;2023-08-30T11:19:57;33.00;66.10
46159;DHT22;31888;44.512;26.104;2023-08-30T11:22:21;33.10;65.80
46159;DHT22;31888;44.512;26.104;2023-08-30T11:24:47;32.90;65.70
46159;DHT22;31888;44.512;26.104;2023-08-30T11:27:12;32.80;65.80
46159;DHT22;31888;44.512;26.104;2023-08-30T11:29:39;32.80;67.20
46159;DHT22;31888;44.512;26.104;2023-08-30T11:32:04;32.70;66.70
46159;DHT22;31888;44.512;26.104;2023-08-30T11:34:28;32.70;66.00
46159;DHT22;31888;44.512;26.104;2023-08-30T11:36:53;32.70;66.10
46159;DHT22;31888;44.512;26.104;2023-08-30T11:39:17;32.80;66.70
46159;DHT22;31888;44.512;26.104;2023-08-30T11:41:42;32.80;66.00
46159;DHT22;31888;44.512;26.104;2023-08-30T11:44:06;32.80;67.50
46159;DHT22;31888;44.512;26.104;2023-08-30T11:46:31;32.70;67.10
46159;DHT22;31888;44.512;26.104;2023-08-30T11:48:56;32.70;66.60
46159;DHT22;31888;44.512;26.104;2023-08-30T11:51:20;32.70;67.90
46159;DHT22;31888;44.512;26.104;2023-08-30T11:53:46;32.80;66.30
46159;DHT22;31888;44.512;26.104;2023-08-30T11:56:10;32.70;66.70
46159;DHT22;31888;44.512;26.104;2023-08-30T11:58:35;32.80;65.90
46159;DHT22;31888;44.512;26.104;2023-08-30T12:01:00;32.90;66.00
46159;DHT22;31888;44.512;26.104;2023-08-30T12:03:26;32.90;65.70
46159;DHT22;31888;44.512;26.104;2023-08-30T12:05:51;32.70;66.90
46159;DHT22;31888;44.512;26.104;2023-08-30T12:08:19;32.70;66.20
46159;DHT22;31888;44.512;26.104;2023-08-30T12:10:45;32.50;66.00
46159;DHT22;31888;44.512;26.104;2023-08-30T12:13:19;32.50;66.10
46159;DHT22;31888;44.512;26.104;2023-08-30T12:15:43;32.60;66.90
46159;DHT22;31888;44.512;26.104;2023-08-30T12:18:10;32.60;66.10
46159;DHT22;31888;44.512;26.104;2023-08-30T12:20:34;32.50;66.20
46159;DHT22;31888;44.512;26.104;2023-08-30T12:22:58;32.50;66.50
46159;DHT22;31888;44.512;26.104;2023-08-30T12:25:23;32.60;66.90
46159;DHT22;31888;44.512;26.104;2023-08-30T12:27:50;32.40;66.50
46159;DHT22;31888;44.512;26.104;2023-08-30T12:30:14;32.40;67.10
46159;DHT22;31888;44.512;26.104;2023-08-30T12:32:42;32.50;66.60
46159;DHT22;31888;44.512;26.104;2023-08-30T12:35:07;32.50;66.70
46159;DHT22;31888;44.512;26.104;2023-08-30T12:37:31;32.70;67.10
46159;DHT22;31888;44.512;26.104;2023-08-30T12:39:55;32.70;67.40
46159;DHT22;31888;44.512;26.104;2023-08-30T12:42:19;32.80;67.10
46159;DHT22;31888;44.512;26.104;2023-08-30T12:44:45;32.90;66.40
46159;DHT22;31888;44.512;26.104;2023-08-30T12:47:09;33.00;66.90
46159;DHT22;31888;44.512;26.104;2023-08-30T12:49:36;33.10;65.50
46159;DHT22;31888;44.512;26.104;2023-08-30T12:52:00;33.00;65.90
46159;DHT22;31888;44.512;26.104;2023-08-30T12:54:24;32.90;66.00
46159;DHT22;31888;44.512;26.104;2023-08-30T12:56:48;32.80;67.20
46159;DHT22;31888;44.512;26.104;2023-08-30T12:59:12;32.80;66.60
46159;DHT22;31888;44.512;26.104;2023-08-30T13:01:38;32.70;66.80
46159;DHT22;31888;44.512;26.104;2023-08-30T13:04:03;32.50;67.30
46159;DHT22;31888;44.512;26.104;2023-08-30T13:06:30;32.40;67.90
46159;DHT22;31888;44.512;26.104;2023-08-30T13:08:54;32.30;67.60
46159;DHT22;31888;44.512;26.104;2023-08-30T13:11:18;32.40;67.60
46159;DHT22;31888;44.512;26.104;2023-08-30T13:13:43;32.30;67.90
46159;DHT22;31888;44.512;26.104;2023-08-30T13:16:07;32.30;68.50
46159;DHT22;31888;44.512;26.104;2023-08-30T13:18:32;32.30;67.70
46159;DHT22;31888;44.512;26.104;2023-08-30T13:20:56;32.30;67.70
46159;DHT22;31888;44.512;26.104;2023-08-30T13:23:21;32.30;67.40
46159;DHT22;31888;44.512;26.104;2023-08-30T13:25:45;32.20;67.80
46159;DHT22;31888;44.512;26.104;2023-08-30T13:28:09;32.30;68.30
46159;DHT22;31888;44.512;26.104;2023-08-30T13:30:33;32.20;68.20
46159;DHT22;31888;44.512;26.104;2023-08-30T13:32:57;32.30;68.10
46159;DHT22;31888;44.512;26.104;2023-08-30T13:35:23;32.30;68.50
46159;DHT22;31888;44.512;26.104;2023-08-30T13:37:46;32.30;68.90
46159;DHT22;31888;44.512;26.104;2023-08-30T13:40:13;32.40;68.40
46159;DHT22;31888;44.512;26.104;2023-08-30T13:42:37;32.50;68.70
46159;DHT22;31888;44.512;26.104;2023-08-30T13:45:01;32.60;68.00
46159;DHT22;31888;44.512;26.104;2023-08-30T13:47:28;32.70;67.70
46159;DHT22;31888;44.512;26.104;2023-08-30T13:49:52;32.80;67.30
46159;DHT22;31888;44.512;26.104;2023-08-30T13:52:17;32.90;67.50
46159;DHT22;31888;44.512;26.104;2023-08-30T13:54:41;32.90;67.80
46159;DHT22;31888;44.512;26.104;2023-08-30T13:57:06;32.90;67.60
46159;DHT22;31888;44.512;26.104;2023-08-30T13:59:30;32.80;67.10
46159;DHT22;31888;44.512;26.104;2023-08-30T14:01:54;32.80;68.90
46159;DHT22;31888;44.512;26.104;2023-08-30T14:04:20;32.70;70.50
46159;DHT22;31888;44.512;26.104;2023-08-30T14:06:44;32.60;71.00
46159;DHT22;31888;44.512;26.104;2023-08-30T14:09:09;32.60;71.50
46159;DHT22;31888;44.512;26.104;2023-08-30T14:11:33;32.50;71.20
46159;DHT22;31888;44.512;26.104;2023-08-30T14:13:57;32.30;71.70
46159;DHT22;31888;44.512;26.104;2023-08-30T14:16:21;32.20;71.40
46159;DHT22;31888;44.512;26.104;2023-08-30T14:18:51;32.10;71.70
46159;DHT22;31888;44.512;26.104;2023-08-30T14:21:15;32.10;71.90
46159;DHT22;31888;44.512;26.104;2023-08-30T14:23:39;32.10;72.00
46159;DHT22;31888;44.512;26.104;2023-08-30T14:26:06;32.00;72.00
46159;DHT22;31888;44.512;26.104;2023-08-30T14:28:32;32.10;72.00
46159;DHT22;31888;44.512;26.104;2023-08-30T14:30:56;32.00;72.20
46159;DHT22;31888;44.512;26.104;2023-08-30T14:33:20;32.00;71.70
46159;DHT22;31888;44.512;26.104;2023-08-30T14:35:44;31.90;72.30
46159;DHT22;31888;44.512;26.104;2023-08-30T14:38:09;31.90;72.70
46159;DHT22;31888;44.512;26.104;2023-08-30T14:40:33;31.90;72.80
46159;DHT22;31888;44.512;26.104;2023-08-30T14:43:03;31.90;72.40
46159;DHT22;31888;44.512;26.104;2023-08-30T14:45:27;31.90;72.50
46159;DHT22;31888;44.512;26.104;2023-08-30T14:47:51;31.80;72.60
46159;DHT22;31888;44.512;26.104;2023-08-30T14:50:15;31.90;72.90
46159;DHT22;31888;44.512;26.104;2023-08-30T14:52:39;31.90;72.40
46159;DHT22;31888;44.512;26.104;2023-08-30T14:55:03;31.90;72.40
46159;DHT22;31888;44.512;26.104;2023-08-30T14:57:28;32.00;72.20
46159;DHT22;31888;44.512;26.104;2023-08-30T14:59:53;32.00;72.30
46159;DHT22;31888;44.512;26.104;2023-08-30T15:02:19;32.00;71.80